createdAt,value
2022-12-12T00:00:16.557Z,30.207
2022-12-12T00:05:16.851Z,30.203
2022-12-12T00:10:16.506Z,30.201
2022-12-12T00:15:16.655Z,30.200
2022-12-12T00:20:16.612Z,30.199
2022-12-12T00:25:16.646Z,30.198
2022-12-12T00:30:16.650Z,30.197
2022-12-12T00:35:16.565Z,30.198
2022-12-12T00:40:16.771Z,30.197
2022-12-12T00:45:16.638Z,30.196
2022-12-12T00:50:16.669Z,30.194
2022-12-12T00:55:16.610Z,30.194
2022-12-12T01:00:16.666Z,30.192
2022-12-12T01:05:16.793Z,30.189
2022-12-12T01:10:16.977Z,30.189
2022-12-12T01:15:16.667Z,30.189
2022-12-12T01:20:16.672Z,30.188
2022-12-12T01:25:16.686Z,30.185
2022-12-12T01:30:16.744Z,30.181
2022-12-12T01:35:16.764Z,30.178
2022-12-12T01:40:16.723Z,30.176
2022-12-12T01:45:17.030Z,30.177
2022-12-12T01:50:16.726Z,30.173
2022-12-12T01:55:19.815Z,30.169
2022-12-12T02:00:16.802Z,30.162
2022-12-12T02:05:16.768Z,30.160
2022-12-12T02:10:16.789Z,30.161
2022-12-12T02:15:16.885Z,30.156
2022-12-12T02:20:16.808Z,30.153
2022-12-12T02:25:16.815Z,30.153
2022-12-12T02:30:16.865Z,30.151
2022-12-12T02:35:16.910Z,30.152
2022-12-12T02:40:16.905Z,30.156
2022-12-12T02:45:16.861Z,30.158
2022-12-12T02:50:16.907Z,30.160
2022-12-12T02:55:16.936Z,30.163
2022-12-12T03:00:16.916Z,30.159
2022-12-12T03:05:16.951Z,30.156
2022-12-12T03:10:17.052Z,30.154
2022-12-12T03:15:16.922Z,30.150
2022-12-12T03:20:17.071Z,30.153
2022-12-12T03:25:17.090Z,30.153
2022-12-12T03:30:17.045Z,30.149
2022-12-12T03:35:16.956Z,30.149
2022-12-12T03:40:16.951Z,30.149
2022-12-12T03:45:17.136Z,30.148
2022-12-12T03:50:17.029Z,30.153
2022-12-12T03:55:16.942Z,30.153
2022-12-12T04:00:17.080Z,30.157
2022-12-12T04:05:17.153Z,30.152
2022-12-12T04:10:17.235Z,30.153
2022-12-12T04:15:17.194Z,30.147
2022-12-12T04:20:17.276Z,30.145
2022-12-12T04:25:17.149Z,30.137
2022-12-12T04:30:17.089Z,30.141
2022-12-12T04:35:17.226Z,30.145
2022-12-12T04:40:17.323Z,30.142
2022-12-12T04:45:17.178Z,30.140
2022-12-12T04:50:17.101Z,30.137
2022-12-12T04:55:17.217Z,30.140
2022-12-12T05:00:16.193Z,30.137
2022-12-12T05:05:16.161Z,30.135
2022-12-12T05:10:16.372Z,30.137
2022-12-12T05:15:16.583Z,30.137
2022-12-12T05:20:16.253Z,30.132
2022-12-12T05:25:16.265Z,30.134
2022-12-12T05:30:16.188Z,30.131
2022-12-12T05:35:16.547Z,30.135
2022-12-12T05:40:16.219Z,30.133
2022-12-12T05:45:16.334Z,30.132
2022-12-12T05:50:16.462Z,30.131
2022-12-12T05:55:16.568Z,30.130
2022-12-12T06:00:16.348Z,30.129
2022-12-12T06:05:16.489Z,30.126
2022-12-12T06:10:16.241Z,30.126
2022-12-12T06:15:16.491Z,30.127
2022-12-12T06:20:16.395Z,30.125
2022-12-12T06:25:16.502Z,30.129
2022-12-12T06:30:16.352Z,30.131
2022-12-12T06:35:16.492Z,30.130
2022-12-12T06:40:16.520Z,30.132
2022-12-12T06:45:16.731Z,30.129
2022-12-12T06:50:21.872Z,30.129
2022-12-12T06:55:16.451Z,30.123
2022-12-12T07:00:16.819Z,30.124
2022-12-12T07:05:16.436Z,30.126
2022-12-12T07:10:21.095Z,30.124
2022-12-12T07:15:16.551Z,30.126
2022-12-12T07:20:16.634Z,30.125
2022-12-12T07:25:16.527Z,30.124
2022-12-12T07:30:16.575Z,30.121
2022-12-12T07:35:16.533Z,30.122
2022-12-12T07:40:16.553Z,30.121
2022-12-12T07:45:18.501Z,30.120
2022-12-12T07:50:16.556Z,30.119
2022-12-12T07:55:16.520Z,30.116
2022-12-12T08:00:16.597Z,30.116
2022-12-12T08:05:17.044Z,30.112
2022-12-12T08:10:16.688Z,30.112
2022-12-12T08:15:16.760Z,30.109
2022-12-12T08:20:16.616Z,30.108
2022-12-12T08:25:16.817Z,30.107
2022-12-12T08:30:16.679Z,30.105
2022-12-12T08:35:16.858Z,30.103
2022-12-12T08:40:16.768Z,30.106
2022-12-12T08:45:16.863Z,30.106
2022-12-12T08:50:16.665Z,30.104
2022-12-12T08:55:16.692Z,30.101
2022-12-12T09:00:16.772Z,30.106
2022-12-12T09:05:16.858Z,30.101
2022-12-12T09:10:16.724Z,30.098
2022-12-12T09:15:16.995Z,30.101
2022-12-12T09:20:16.738Z,30.099
2022-12-12T09:25:16.868Z,30.104
2022-12-12T09:30:17.037Z,30.108
2022-12-12T09:35:16.812Z,30.107
2022-12-12T09:40:16.848Z,30.106
2022-12-12T09:45:16.930Z,30.104
2022-12-12T09:50:16.911Z,30.104
2022-12-12T09:55:16.797Z,30.105
2022-12-12T10:00:17.268Z,30.104
2022-12-12T10:05:16.906Z,30.106
2022-12-12T10:10:16.887Z,30.106
2022-12-12T10:15:16.873Z,30.104
2022-12-12T10:20:16.933Z,30.105
2022-12-12T10:25:17.175Z,30.112
2022-12-12T10:30:16.883Z,30.117
2022-12-12T10:35:21.225Z,30.116
2022-12-12T10:40:16.939Z,30.117
2022-12-12T10:45:16.899Z,30.119
2022-12-12T10:50:17.020Z,30.120
2022-12-12T10:55:17.107Z,30.122
2022-12-12T11:00:17.076Z,30.122
2022-12-12T11:05:17.127Z,30.120
2022-12-12T11:10:16.987Z,30.122
2022-12-12T11:15:17.152Z,30.123
2022-12-12T11:20:17.103Z,30.123
2022-12-12T11:25:16.959Z,30.122
2022-12-12T11:30:17.260Z,30.121
2022-12-12T11:35:17.115Z,30.122
2022-12-12T11:40:17.040Z,30.124
2022-12-12T11:45:17.042Z,30.121
2022-12-12T11:50:17.038Z,30.128
2022-12-12T11:55:17.083Z,30.128
2022-12-12T12:00:17.125Z,30.133
2022-12-12T12:05:17.279Z,30.134
2022-12-12T12:10:21.063Z,30.141
2022-12-12T12:15:17.157Z,30.137
2022-12-12T12:20:17.225Z,30.142
2022-12-12T12:25:17.197Z,30.146
2022-12-12T12:30:17.121Z,30.147
2022-12-12T12:35:17.164Z,30.145
2022-12-12T12:40:17.233Z,30.147
2022-12-12T12:45:17.206Z,30.152
2022-12-12T12:50:17.683Z,30.151
2022-12-12T12:55:17.261Z,30.154
2022-12-12T13:00:17.645Z,30.156
2022-12-12T13:05:17.241Z,30.156
2022-12-12T13:10:17.630Z,30.155
2022-12-12T13:15:17.271Z,30.157
2022-12-12T13:20:17.437Z,30.164
2022-12-12T13:25:17.764Z,30.168
2022-12-12T13:30:17.677Z,30.167
2022-12-12T13:35:17.646Z,30.169
2022-12-12T13:40:17.633Z,30.173
2022-12-12T13:45:17.310Z,30.174
2022-12-12T13:50:17.650Z,30.175
2022-12-12T13:55:17.387Z,30.175
2022-12-12T14:00:17.765Z,30.172
2022-12-12T14:05:15.395Z,30.172
2022-12-12T14:10:15.825Z,30.171
2022-12-12T14:15:15.749Z,30.171
2022-12-12T14:20:15.853Z,30.168
2022-12-12T14:25:15.679Z,30.170
2022-12-12T14:30:15.818Z,30.171
2022-12-12T14:35:15.437Z,30.170
2022-12-12T14:40:16.014Z,30.170
2022-12-12T14:45:15.662Z,30.169
2022-12-12T14:50:15.679Z,30.171
2022-12-12T14:55:15.500Z,30.171
2022-12-12T15:00:15.937Z,30.172
2022-12-12T15:05:15.581Z,30.166
2022-12-12T15:10:16.212Z,30.167
2022-12-12T15:15:15.840Z,30.168
2022-12-12T15:20:16.084Z,30.165
2022-12-12T15:25:15.833Z,30.160
2022-12-12T15:30:16.067Z,30.162
2022-12-12T15:35:15.653Z,30.161
2022-12-12T15:40:16.015Z,30.162
2022-12-12T15:45:15.645Z,30.163
2022-12-12T15:50:15.980Z,30.163
2022-12-12T15:55:15.623Z,30.162
2022-12-12T16:00:16.052Z,30.165
2022-12-12T16:05:15.719Z,30.166
2022-12-12T16:10:16.084Z,30.162
2022-12-12T16:15:15.679Z,30.162
2022-12-12T16:20:16.096Z,30.160
2022-12-12T16:25:15.765Z,30.158
2022-12-12T16:30:16.105Z,30.158
2022-12-12T16:35:15.774Z,30.155
2022-12-12T16:40:16.035Z,30.155
2022-12-12T16:45:15.878Z,30.156
2022-12-12T16:50:16.085Z,30.156
2022-12-12T16:55:15.818Z,30.155
2022-12-12T17:00:16.392Z,30.153
2022-12-12T17:05:15.827Z,30.153
2022-12-12T17:10:16.622Z,30.153
2022-12-12T17:15:15.822Z,30.150
2022-12-12T17:20:16.498Z,30.155
2022-12-12T17:25:15.863Z,30.152
2022-12-12T17:30:16.263Z,30.149
2022-12-12T17:35:15.861Z,30.151
2022-12-12T17:40:16.130Z,30.150
2022-12-12T17:45:15.858Z,30.150
2022-12-12T17:50:16.183Z,30.146
2022-12-12T17:55:54.485Z,30.150
2022-12-12T18:00:16.239Z,30.146
2022-12-12T18:05:15.931Z,30.146
2022-12-12T18:10:16.341Z,30.145
2022-12-12T18:15:15.982Z,30.148
2022-12-12T18:20:16.360Z,30.149
2022-12-12T18:25:16.121Z,30.147
2022-12-12T18:30:16.310Z,30.145
2022-12-12T18:35:15.928Z,30.144
2022-12-12T18:40:16.438Z,30.144
2022-12-12T18:45:16.068Z,30.143
2022-12-12T18:50:16.469Z,30.145
2022-12-12T18:55:16.053Z,30.143
2022-12-12T19:00:16.481Z,30.141
2022-12-12T19:05:16.244Z,30.144
2022-12-12T19:10:16.330Z,30.140
2022-12-12T19:15:17.527Z,30.143
2022-12-12T19:20:16.486Z,30.144
2022-12-12T19:25:16.284Z,30.140
2022-12-12T19:30:16.434Z,30.141
2022-12-12T19:35:16.120Z,30.136
2022-12-12T19:40:17.017Z,30.137
2022-12-12T19:45:16.200Z,30.135
2022-12-12T19:50:16.494Z,30.136
2022-12-12T19:55:16.054Z,30.134
2022-12-12T20:00:16.589Z,30.133
2022-12-12T20:05:16.224Z,30.138
2022-12-12T20:10:16.655Z,30.140
2022-12-12T20:15:16.218Z,30.140
2022-12-12T20:20:16.585Z,30.143
2022-12-12T20:25:16.307Z,30.145
2022-12-12T20:30:16.554Z,30.145
2022-12-12T20:35:16.236Z,30.146
2022-12-12T20:40:16.610Z,30.145
2022-12-12T20:45:16.683Z,30.145
2022-12-12T20:50:16.259Z,30.144
2022-12-12T20:55:16.627Z,30.147
2022-12-12T21:00:16.731Z,30.151
2022-12-12T21:05:16.677Z,30.153
2022-12-12T21:10:16.231Z,30.152
2022-12-12T21:15:16.774Z,30.153
2022-12-12T21:20:16.481Z,30.153
2022-12-12T21:25:16.630Z,30.155
2022-12-12T21:30:16.358Z,30.154
2022-12-12T21:35:16.609Z,30.151
2022-12-12T21:40:16.523Z,30.155
2022-12-12T21:45:16.708Z,30.156
2022-12-12T21:50:16.476Z,30.156
2022-12-12T21:55:16.704Z,30.158
2022-12-12T22:00:16.471Z,30.158
2022-12-12T22:05:16.712Z,30.159
2022-12-12T22:10:16.644Z,30.157
2022-12-12T22:15:16.773Z,30.157
2022-12-12T22:20:16.489Z,30.158
2022-12-12T22:25:16.784Z,30.160
2022-12-12T22:30:16.576Z,30.163
2022-12-12T22:35:16.719Z,30.162
2022-12-12T22:40:16.528Z,30.165
2022-12-12T22:45:16.989Z,30.167
2022-12-12T22:50:16.624Z,30.168
2022-12-12T22:55:16.936Z,30.170
2022-12-12T23:00:16.601Z,30.170
2022-12-12T23:05:16.957Z,30.170
2022-12-12T23:10:16.604Z,30.168
2022-12-12T23:15:16.903Z,30.166
2022-12-12T23:20:16.630Z,30.168
2022-12-12T23:25:17.101Z,30.167
2022-12-12T23:30:16.617Z,30.170
2022-12-12T23:35:17.013Z,30.168
2022-12-12T23:40:16.749Z,30.167
2022-12-12T23:45:16.896Z,30.167
2022-12-12T23:50:16.782Z,30.166
2022-12-12T23:55:16.940Z,30.165
